createdAt,value
2018-04-07T00:00:16.431Z,4.20
2018-04-07T00:01:21.050Z,4.30
2018-04-07T00:02:15.909Z,4.70
2018-04-07T00:03:17.913Z,4.60
2018-04-07T00:04:16.426Z,4.70
2018-04-07T00:05:14.613Z,4.30
2018-04-07T00:06:22.419Z,5.30
2018-04-07T00:07:15.997Z,4.80
2018-04-07T00:08:16.926Z,4.70
2018-04-07T00:09:16.912Z,4.90
2018-04-07T00:10:25.362Z,4.70
2018-04-07T00:11:19.408Z,4.50
2018-04-07T00:12:17.909Z,4.70
2018-04-07T00:13:16.247Z,4.40
2018-04-07T00:14:16.476Z,4.30
2018-04-07T00:15:19.430Z,4.60
2018-04-07T00:16:18.447Z,4.30
2018-04-07T00:17:17.053Z,4.50
2018-04-07T00:18:18.929Z,4.50
2018-04-07T00:19:17.412Z,4.30
2018-04-07T00:20:17.674Z,4.30
2018-04-07T00:21:19.423Z,4.00
2018-04-07T00:22:19.921Z,4.30
2018-04-07T00:23:19.969Z,4.40
2018-04-07T00:24:19.882Z,4.20
2018-04-07T00:25:19.471Z,4.00
2018-04-07T00:26:26.452Z,4.20
2018-04-07T00:27:20.410Z,4.00
2018-04-07T00:28:20.905Z,4.20
2018-04-07T00:29:19.153Z,4.20
2018-04-07T00:30:19.234Z,4.10
2018-04-07T00:31:21.414Z,4.00
2018-04-07T00:32:19.610Z,4.50
2018-04-07T00:33:21.878Z,3.80
2018-04-07T00:34:20.912Z,4.10
2018-04-07T00:35:20.874Z,4.30
2018-04-07T00:36:21.908Z,4.20
2018-04-07T00:37:20.382Z,4.10
2018-04-07T00:38:22.450Z,3.80
2018-04-07T00:39:20.812Z,4.10
2018-04-07T00:40:21.032Z,4.00
2018-04-07T00:41:25.285Z,4.40
2018-04-07T00:42:23.442Z,4.30
2018-04-07T00:43:23.439Z,4.50
2018-04-07T00:44:23.424Z,4.40
2018-04-07T00:45:24.968Z,4.10
2018-04-07T00:46:22.866Z,4.00
2018-04-07T00:47:24.430Z,4.30
2018-04-07T00:48:24.371Z,4.20
2018-04-07T00:49:25.411Z,4.30
2018-04-07T00:50:25.442Z,4.10
2018-04-07T00:51:24.918Z,4.20
2018-04-07T00:52:27.962Z,4.10
2018-04-07T00:53:23.310Z,4.10
2018-04-07T00:54:26.955Z,3.80
2018-04-07T00:55:23.678Z,4.00
2018-04-07T00:56:27.452Z,4.10
2018-04-07T00:57:24.006Z,3.90
2018-04-07T00:58:27.910Z,4.40
2018-04-07T00:59:27.910Z,4.20
2018-04-07T01:00:31.422Z,3.60
2018-04-07T01:01:26.413Z,4.10
2018-04-07T01:02:27.196Z,4.00
2018-04-07T01:03:28.927Z,4.30
2018-04-07T01:04:25.179Z,3.90
2018-04-07T01:05:25.264Z,3.90
2018-04-07T01:06:25.480Z,4.00
2018-04-07T01:07:25.709Z,4.00
2018-04-07T01:08:29.425Z,3.60
2018-04-07T01:09:26.063Z,4.10
2018-04-07T01:10:27.922Z,3.80
2018-04-07T01:11:27.465Z,4.00
2018-04-07T01:12:29.413Z,4.10
2018-04-07T01:13:34.410Z,4.30
2018-04-07T01:14:27.855Z,3.90
2018-04-07T01:15:28.907Z,3.80
2018-04-07T01:16:27.233Z,3.80
2018-04-07T01:17:29.418Z,4.20
2018-04-07T01:18:30.443Z,3.80
2018-04-07T01:19:28.783Z,3.80
2018-04-07T01:20:28.023Z,3.70
2018-04-07T01:21:31.912Z,3.90
2018-04-07T01:22:28.394Z,4.20
2018-04-07T01:23:30.416Z,3.70
2018-04-07T01:24:30.418Z,4.00
2018-04-07T01:25:32.411Z,3.60
2018-04-07T01:26:29.866Z,3.90
2018-04-07T01:27:30.283Z,3.80
2018-04-07T01:28:30.946Z,3.80
2018-04-07T01:29:32.911Z,3.50
2018-04-07T01:30:34.442Z,3.90
2018-04-07T01:31:31.411Z,3.80
2018-04-07T01:32:31.926Z,3.90
2018-04-07T01:33:31.961Z,4.20
2018-04-07T01:34:31.907Z,3.50
2018-04-07T01:35:32.912Z,3.70
2018-04-07T01:36:37.419Z,3.90
2018-04-07T01:37:34.436Z,4.30
2018-04-07T01:38:31.766Z,3.90
2018-04-07T01:39:32.910Z,3.70
2018-04-07T01:40:32.908Z,4.00
2018-04-07T01:41:31.238Z,3.90
2018-04-07T01:42:33.411Z,4.20
2018-04-07T01:43:35.411Z,3.60
2018-04-07T01:44:33.413Z,4.10
2018-04-07T01:45:32.050Z,4.20
2018-04-07T01:46:33.915Z,4.20
2018-04-07T01:47:35.444Z,4.20
2018-04-07T01:48:36.448Z,4.20
2018-04-07T01:49:32.781Z,4.10
2018-04-07T01:50:34.036Z,4.20
2018-04-07T01:51:33.234Z,4.00
2018-04-07T01:52:33.492Z,4.30
2018-04-07T01:53:36.414Z,4.30
2018-04-07T01:54:34.930Z,3.90
2018-04-07T01:55:35.916Z,3.60
2018-04-07T01:56:35.298Z,3.80
2018-04-07T01:57:36.408Z,4.00
2018-04-07T01:58:34.606Z,4.10
2018-04-07T01:59:34.869Z,3.90
2018-04-07T02:00:35.023Z,3.90
2018-04-07T02:01:51.880Z,4.20
2018-04-07T02:02:38.940Z,3.80
2018-04-07T02:03:37.413Z,3.90
2018-04-07T02:04:37.419Z,4.20
2018-04-07T02:05:35.881Z,4.00
2018-04-07T02:06:36.096Z,3.90
2018-04-07T02:07:38.387Z,4.30
2018-04-07T02:08:39.453Z,3.80
2018-04-07T02:09:40.408Z,4.40
2018-04-07T02:10:38.414Z,3.90
2018-04-07T02:11:38.428Z,4.30
2018-04-07T02:12:47.931Z,4.30
2018-04-07T02:13:39.929Z,4.30
2018-04-07T02:14:38.909Z,4.20
2018-04-07T02:15:39.437Z,4.10
2018-04-07T02:16:39.412Z,4.50
2018-04-07T02:17:40.433Z,4.40
2018-04-07T02:18:38.927Z,4.00
2018-04-07T02:19:38.083Z,4.10
2018-04-07T02:20:39.916Z,3.70
2018-04-07T02:21:39.518Z,4.00
2018-04-07T02:22:40.414Z,4.30
2018-04-07T02:23:41.901Z,4.20
2018-04-07T02:24:42.881Z,4.00
2018-04-07T02:25:40.213Z,4.00
2018-04-07T02:26:39.421Z,3.80
2018-04-07T02:27:39.626Z,4.50
2018-04-07T02:28:41.416Z,4.30
2018-04-07T02:29:40.001Z,4.40
2018-04-07T02:30:55.924Z,4.50
2018-04-07T02:31:42.875Z,4.00
2018-04-07T02:32:42.427Z,4.10
2018-04-07T02:33:42.462Z,4.00
2018-04-07T02:34:40.942Z,4.20
2018-04-07T02:35:41.145Z,3.80
2018-04-07T02:36:42.933Z,4.30
2018-04-07T02:37:41.534Z,4.30
2018-04-07T02:38:43.467Z,4.10
2018-04-07T02:39:41.855Z,4.30
2018-04-07T02:40:41.999Z,4.30
2018-04-07T02:41:43.921Z,4.20
2018-04-07T02:42:43.234Z,4.30
2018-04-07T02:43:44.429Z,4.20
2018-04-07T02:44:42.808Z,4.00
2018-04-07T02:45:42.966Z,4.20
2018-04-07T02:46:43.118Z,4.40
2018-04-07T02:47:44.335Z,4.60
2018-04-07T02:48:44.558Z,4.40
2018-04-07T02:49:44.779Z,4.50
2018-04-07T02:50:44.210Z,4.40
2018-04-07T02:51:45.932Z,4.30
2018-04-07T02:52:47.933Z,4.20
2018-04-07T02:53:46.917Z,4.70
2018-04-07T02:54:46.431Z,4.50
2018-04-07T02:55:45.411Z,4.20
2018-04-07T02:56:47.373Z,4.10
2018-04-07T02:57:53.002Z,4.30
2018-04-07T02:58:47.908Z,4.30
2018-04-07T02:59:45.391Z,4.10
2018-04-07T03:00:47.462Z,4.10
2018-04-07T03:01:47.426Z,4.20
2018-04-07T03:02:45.817Z,4.30
2018-04-07T03:03:45.971Z,4.10
2018-04-07T03:04:47.925Z,4.20
2018-04-07T03:05:46.371Z,3.80
2018-04-07T03:06:48.455Z,4.70
2018-04-07T03:07:50.459Z,4.90
2018-04-07T03:09:02.427Z,4.30
2018-04-07T03:09:47.114Z,5.00
2018-04-07T03:10:49.467Z,5.00
2018-04-07T03:11:49.449Z,4.50
2018-04-07T03:12:49.408Z,5.30
2018-04-07T03:13:48.778Z,5.00
2018-04-07T03:14:47.876Z,4.90
2018-04-07T03:15:49.081Z,4.80
2018-04-07T03:16:50.910Z,4.40
2018-04-07T03:17:51.393Z,4.70
2018-04-07T03:18:52.455Z,4.70
2018-04-07T03:19:50.409Z,4.50
2018-04-07T03:20:49.038Z,4.80
2018-04-07T03:21:50.217Z,4.60
2018-04-07T03:22:49.426Z,5.30
2018-04-07T03:23:53.446Z,4.80
2018-04-07T03:24:49.766Z,4.60
2018-04-07T03:25:50.025Z,5.00
2018-04-07T03:26:53.907Z,4.70
2018-04-07T03:27:50.248Z,4.80
2018-04-07T03:28:52.413Z,4.70
2018-04-07T03:29:52.417Z,4.40
2018-04-07T03:30:50.791Z,5.20
2018-04-07T03:31:53.446Z,4.90
2018-04-07T03:32:54.908Z,4.90
2018-04-07T03:33:52.908Z,4.70
2018-04-07T03:34:52.912Z,4.90
2018-04-07T03:35:54.408Z,5.30
2018-04-07T03:36:55.405Z,4.80
2018-04-07T03:37:53.425Z,4.60
2018-04-07T03:38:54.860Z,4.60
2018-04-07T03:39:58.950Z,4.80
2018-04-07T03:40:52.420Z,4.90
2018-04-07T03:41:54.410Z,4.70
2018-04-07T03:42:52.766Z,4.40
2018-04-07T03:43:55.915Z,4.50
2018-04-07T03:44:54.149Z,4.90
2018-04-07T03:45:53.280Z,4.80
2018-04-07T03:46:54.906Z,4.80
2018-04-07T03:47:53.513Z,4.90
2018-04-07T03:48:55.427Z,4.70
2018-04-07T03:49:55.451Z,4.80
2018-04-07T03:50:54.043Z,4.90
2018-04-07T03:52:05.912Z,4.80
2018-04-07T03:52:54.373Z,4.60
2018-04-07T03:53:56.420Z,5.00
2018-04-07T03:55:02.479Z,4.70
2018-04-07T03:55:56.444Z,4.70
2018-04-07T03:57:51.611Z,4.70
2018-04-07T03:58:50.674Z,4.70
2018-04-07T03:59:47.197Z,4.40
2018-04-07T04:00:55.845Z,4.70
2018-04-07T04:01:49.133Z,4.80
2018-04-07T04:02:48.728Z,5.00
2018-04-07T04:03:49.671Z,4.50
2018-04-07T04:04:49.144Z,5.00
2018-04-07T04:05:48.279Z,5.50
2018-04-07T04:06:51.688Z,4.80
2018-04-07T04:08:00.161Z,5.20
2018-04-07T04:08:52.663Z,4.70
2018-04-07T04:09:50.662Z,4.90
2018-04-07T04:10:49.643Z,5.10
2018-04-07T04:11:52.670Z,5.50
2018-04-07T04:12:49.241Z,5.60
2018-04-07T04:13:51.165Z,6.10
2018-04-07T04:14:51.168Z,5.60
2018-04-07T04:15:49.768Z,6.20
2018-04-07T04:16:53.123Z,5.90
2018-04-07T04:17:50.959Z,6.80
2018-04-07T04:18:56.196Z,6.20
2018-04-07T04:19:50.649Z,6.30
2018-04-07T04:20:52.166Z,6.10
2018-04-07T04:21:52.688Z,6.00
2018-04-07T04:22:51.915Z,5.90
2018-04-07T04:23:58.670Z,5.30
2018-04-07T04:24:54.665Z,5.30
2018-04-07T04:26:07.166Z,5.40
2018-04-07T04:26:56.387Z,5.10
2018-04-07T04:27:53.163Z,5.30
2018-04-07T04:28:51.663Z,5.40
2018-04-07T04:29:56.647Z,5.80
2018-04-07T04:30:53.678Z,6.00
2018-04-07T04:31:53.670Z,6.10
2018-04-07T04:32:54.224Z,5.70
2018-04-07T04:33:53.419Z,5.70
2018-04-07T04:34:54.166Z,5.80
2018-04-07T04:35:53.778Z,6.70
2018-04-07T04:36:56.667Z,6.70
2018-04-07T04:37:54.006Z,6.40
2018-04-07T04:38:53.105Z,6.60
2018-04-07T04:39:54.351Z,6.70
2018-04-07T04:40:55.197Z,6.50
2018-04-07T04:41:55.176Z,6.30
2018-04-07T04:42:53.743Z,6.00
2018-04-07T04:43:53.965Z,6.00
2018-04-07T04:44:56.665Z,6.20
2018-04-07T04:45:54.297Z,5.80
2018-04-07T04:46:58.178Z,6.80
2018-04-07T04:48:10.221Z,5.60
2018-04-07T04:49:01.709Z,6.10
2018-04-07T04:49:56.666Z,5.80
2018-04-07T04:50:56.128Z,5.60
2018-04-07T04:51:57.230Z,6.30
2018-04-07T04:53:11.168Z,5.50
2018-04-07T04:54:01.160Z,5.30
2018-04-07T04:54:57.637Z,5.60
2018-04-07T04:55:56.243Z,5.60
2018-04-07T04:56:56.459Z,5.00
2018-04-07T04:58:00.208Z,5.50
2018-04-07T04:58:59.628Z,5.50
2018-04-07T04:59:58.672Z,5.20
2018-04-07T05:01:01.662Z,5.70
2018-04-07T05:01:59.182Z,5.60
2018-04-07T05:03:01.165Z,5.70
2018-04-07T05:03:57.542Z,5.50
2018-04-07T05:04:57.718Z,5.80
2018-04-07T05:06:00.719Z,5.30
2018-04-07T05:06:59.690Z,5.60
2018-04-07T05:07:58.201Z,5.70
2018-04-07T05:09:02.161Z,5.50
2018-04-07T05:09:59.664Z,5.50
2018-04-07T05:11:00.206Z,5.50
2018-04-07T05:12:02.061Z,5.40
2018-04-07T05:12:59.056Z,5.70
2018-04-07T05:14:00.716Z,5.10
2018-04-07T05:15:07.192Z,5.70
2018-04-07T05:16:01.159Z,5.60
2018-04-07T05:17:02.664Z,5.60
2018-04-07T05:17:59.861Z,5.40
2018-04-07T05:19:00.651Z,5.60
2018-04-07T05:20:03.164Z,5.20
2018-04-07T05:21:04.175Z,5.70
2018-04-07T05:22:03.166Z,6.00
2018-04-07T05:23:03.182Z,5.80
2018-04-07T05:24:03.716Z,5.60
2018-04-07T05:25:02.673Z,5.80
2018-04-07T05:26:02.699Z,5.60
2018-04-07T05:27:01.348Z,5.30
2018-04-07T05:28:04.175Z,5.70
2018-04-07T05:29:01.626Z,5.70
2018-04-07T05:30:01.858Z,5.50
2018-04-07T05:31:04.674Z,5.60
2018-04-07T05:32:03.664Z,5.80
2018-04-07T05:33:04.213Z,5.80
2018-04-07T05:34:05.169Z,5.90
2018-04-07T05:35:02.621Z,5.70
2018-04-07T05:36:04.672Z,6.00
2018-04-07T05:37:03.001Z,6.00
2018-04-07T05:38:05.160Z,5.60
2018-04-07T05:39:05.174Z,6.50
2018-04-07T05:40:03.536Z,5.80
2018-04-07T05:41:03.651Z,6.00
2018-04-07T05:42:05.683Z,6.10
2018-04-07T05:43:05.261Z,5.80
2018-04-07T05:44:04.096Z,6.00
2018-04-07T05:45:04.304Z,5.90
2018-04-07T05:46:04.512Z,5.60
2018-04-07T05:47:06.673Z,6.10
2018-04-07T05:48:08.662Z,5.90
2018-04-07T05:49:08.673Z,5.70
2018-04-07T05:50:05.264Z,5.70
2018-04-07T05:51:05.467Z,5.90
2018-04-07T05:52:08.674Z,5.30
2018-04-07T05:53:05.890Z,5.60
2018-04-07T05:54:07.090Z,5.40
2018-04-07T05:55:06.308Z,5.70
2018-04-07T05:56:06.520Z,5.60
2018-04-07T05:57:06.729Z,5.70
2018-04-07T05:58:08.674Z,5.90
2018-04-07T05:59:07.124Z,5.60
2018-04-07T06:00:07.339Z,5.40
2018-04-07T06:01:07.558Z,5.50
2018-04-07T06:02:07.760Z,6.20
2018-04-07T06:03:09.668Z,5.50
2018-04-07T06:04:08.124Z,5.80
2018-04-07T06:05:08.372Z,5.70
2018-04-07T06:06:08.543Z,6.00
2018-04-07T06:07:08.750Z,5.40
2018-04-07T06:08:08.956Z,5.60
2018-04-07T06:09:09.178Z,5.70
2018-04-07T06:10:11.166Z,6.10
2018-04-07T06:11:09.629Z,5.50
2018-04-07T06:12:09.843Z,5.60
2018-04-07T06:13:10.058Z,5.80
2018-04-07T06:14:10.272Z,6.10
2018-04-07T06:15:10.488Z,5.80
2018-04-07T06:16:10.698Z,6.10
2018-04-07T06:17:10.916Z,5.60
2018-04-07T06:18:11.135Z,5.20
2018-04-07T06:19:11.367Z,5.40
2018-04-07T06:20:11.552Z,5.40
2018-04-07T06:21:13.664Z,5.30
2018-04-07T06:22:11.991Z,5.20
2018-04-07T06:23:12.206Z,5.40
2018-04-07T06:24:12.409Z,5.30
2018-04-07T06:25:12.625Z,5.20
2018-04-07T06:26:12.839Z,5.60
2018-04-07T06:27:13.057Z,5.50
2018-04-07T06:28:13.283Z,5.40
2018-04-07T06:29:13.502Z,5.60
2018-04-07T06:30:14.734Z,5.30
2018-04-07T06:31:13.961Z,5.50
2018-04-07T06:32:14.185Z,5.40
2018-04-07T06:33:14.387Z,5.80
2018-04-07T06:34:14.612Z,5.40
2018-04-07T06:35:14.830Z,5.40
2018-04-07T06:36:15.040Z,5.60
2018-04-07T06:37:15.246Z,5.70
2018-04-07T06:38:15.455Z,5.50
2018-04-07T06:39:15.681Z,5.70
2018-04-07T06:40:15.896Z,5.80
2018-04-07T06:41:16.112Z,5.80
2018-04-07T06:42:16.340Z,6.00
2018-04-07T06:43:20.169Z,5.30
2018-04-07T06:44:18.671Z,6.10
2018-04-07T06:45:16.882Z,5.50
2018-04-07T06:46:17.103Z,5.70
2018-04-07T06:47:17.363Z,5.40
2018-04-07T06:48:20.187Z,5.60
2018-04-07T06:49:17.752Z,5.80
2018-04-07T06:50:18.002Z,5.60
2018-04-07T06:51:18.178Z,5.20
2018-04-07T06:52:18.419Z,5.80
2018-04-07T06:53:18.611Z,5.80
2018-04-07T06:54:18.821Z,5.40
2018-04-07T06:55:19.034Z,5.50
2018-04-07T06:56:19.254Z,5.80
2018-04-07T06:57:19.473Z,6.50
2018-04-07T06:58:19.703Z,7.00
2018-04-07T06:59:19.912Z,5.70
2018-04-07T07:00:21.670Z,6.20
2018-04-07T07:01:22.164Z,6.50
2018-04-07T07:02:20.377Z,6.90
2018-04-07T07:03:20.600Z,6.10
2018-04-07T07:04:20.821Z,5.90
2018-04-07T07:05:21.033Z,5.70
2018-04-07T07:06:23.168Z,5.30
2018-04-07T07:07:21.380Z,5.60
2018-04-07T07:08:21.611Z,6.00
2018-04-07T07:09:21.827Z,5.70
2018-04-07T07:10:22.040Z,5.60
2018-04-07T07:11:22.263Z,5.40
2018-04-07T07:12:22.480Z,5.90
2018-04-07T07:13:22.699Z,5.60
2018-04-07T07:14:22.919Z,5.70
2018-04-07T07:15:23.128Z,5.40
2018-04-07T07:16:23.353Z,5.80
2018-04-07T07:17:25.196Z,5.80
2018-04-07T07:18:24.140Z,5.60
2018-04-07T07:19:26.673Z,5.60
2018-04-07T07:20:26.676Z,5.50
2018-04-07T07:21:24.256Z,5.50
2018-04-07T07:22:26.172Z,5.20
2018-04-07T07:23:24.661Z,5.50
2018-04-07T07:24:28.248Z,5.60
2018-04-07T07:25:28.564Z,5.40
2018-04-07T07:26:27.139Z,5.80
2018-04-07T07:27:30.524Z,5.40
2018-04-07T07:28:26.132Z,5.40
2018-04-07T07:29:29.784Z,5.40
2018-04-07T07:30:27.277Z,5.50
2018-04-07T07:31:27.989Z,5.60
2018-04-07T07:32:30.659Z,5.50
2018-04-07T07:33:28.179Z,5.80
2018-04-07T07:34:26.786Z,5.90
2018-04-07T07:35:27.012Z,5.40
2018-04-07T07:36:43.176Z,5.90
2018-04-07T07:37:29.176Z,5.30
2018-04-07T07:38:31.177Z,5.70
2018-04-07T07:39:27.759Z,6.10
2018-04-07T07:40:28.002Z,5.80
2018-04-07T07:41:29.680Z,5.90
2018-04-07T07:42:30.171Z,5.80
2018-04-07T07:43:28.517Z,5.40
2018-04-07T07:44:32.677Z,6.00
2018-04-07T07:45:36.671Z,5.90
2018-04-07T07:46:30.147Z,5.50
2018-04-07T07:47:35.412Z,5.90
2018-04-07T07:48:29.518Z,5.60
2018-04-07T07:49:29.730Z,6.00
2018-04-07T07:50:29.988Z,5.60
2018-04-07T07:51:31.671Z,5.60
2018-04-07T07:52:30.322Z,5.70
2018-04-07T07:53:30.551Z,5.90
2018-04-07T07:54:33.625Z,6.10
2018-04-07T07:55:35.146Z,5.70
2018-04-07T07:56:32.671Z,5.70
2018-04-07T07:57:31.272Z,6.20
2018-04-07T07:58:33.227Z,5.70
2018-04-07T07:59:36.629Z,5.80
2018-04-07T08:00:31.876Z,5.80
2018-04-07T08:01:36.999Z,5.20
2018-04-07T08:02:33.310Z,5.80
2018-04-07T08:03:35.204Z,5.60
2018-04-07T08:04:34.179Z,5.90
2018-04-07T08:05:36.671Z,5.30
2018-04-07T08:06:32.909Z,5.70
2018-04-07T08:07:34.675Z,5.60
2018-04-07T08:08:37.139Z,5.70
2018-04-07T08:09:35.223Z,5.40
2018-04-07T08:10:35.178Z,5.50
2018-04-07T08:11:33.772Z,5.50
2018-04-07T08:12:34.012Z,5.20
2018-04-07T08:13:37.132Z,5.30
2018-04-07T08:14:36.247Z,5.30
2018-04-07T08:15:34.595Z,5.40
2018-04-07T08:16:42.142Z,5.30
2018-04-07T08:17:34.868Z,5.60
2018-04-07T08:18:36.682Z,5.30
2018-04-07T08:19:35.344Z,5.10
2018-04-07T08:20:37.237Z,5.20
2018-04-07T08:21:35.730Z,4.80
2018-04-07T08:22:40.112Z,5.00
2018-04-07T08:23:37.703Z,5.10
2018-04-07T08:24:38.223Z,5.50
2018-04-07T08:25:40.175Z,5.10
2018-04-07T08:26:36.775Z,5.30
2018-04-07T08:27:38.705Z,5.20
2018-04-07T08:28:41.176Z,5.30
2018-04-07T08:29:39.752Z,5.20
2018-04-07T08:30:38.687Z,6.50
2018-04-07T08:31:37.803Z,5.90
2018-04-07T08:32:41.132Z,5.90
2018-04-07T08:33:42.186Z,6.30
2018-04-07T08:34:38.416Z,5.60
2018-04-07T08:35:40.177Z,5.50
2018-04-07T08:36:39.872Z,5.60
2018-04-07T08:37:41.664Z,5.80
2018-04-07T08:38:42.075Z,5.00
2018-04-07T08:39:43.174Z,4.90
2018-04-07T08:40:40.030Z,5.00
2018-04-07T08:41:40.634Z,5.40
2018-04-07T08:42:41.675Z,5.90
2018-04-07T08:43:43.675Z,5.80
2018-04-07T08:44:40.221Z,6.10
2018-04-07T08:45:40.405Z,6.00
2018-04-07T08:46:48.176Z,5.80
2018-04-07T08:47:42.716Z,6.00
2018-04-07T08:48:40.960Z,6.20
2018-04-07T08:49:41.053Z,5.70
2018-04-07T08:50:48.209Z,5.90
2018-04-07T08:51:50.128Z,5.60
2018-04-07T08:52:43.681Z,5.80
2018-04-07T08:53:43.676Z,6.00
2018-04-07T08:54:44.648Z,6.80
2018-04-07T08:55:44.192Z,6.40
2018-04-07T08:56:42.529Z,6.20
2018-04-07T08:57:49.733Z,6.80
2018-04-07T08:58:42.886Z,6.60
2018-04-07T08:59:44.679Z,6.50
2018-04-07T09:00:47.202Z,6.60
2018-04-07T09:01:46.173Z,6.70
2018-04-07T09:03:06.191Z,6.00
2018-04-07T09:03:45.690Z,6.50
2018-04-07T09:04:44.089Z,6.70
2018-04-07T09:05:46.640Z,5.90
2018-04-07T09:06:44.385Z,6.40
2018-04-07T09:07:46.182Z,6.20
2018-04-07T09:08:48.675Z,7.00
2018-04-07T09:09:47.653Z,6.80
2018-04-07T09:10:46.675Z,7.00
2018-04-07T09:11:47.262Z,6.60
2018-04-07T09:12:45.491Z,7.00
2018-04-07T09:13:45.737Z,7.20
2018-04-07T09:14:46.909Z,7.00
2018-04-07T09:15:47.686Z,7.10
2018-04-07T09:16:54.177Z,6.80
2018-04-07T09:17:55.211Z,6.70
2018-04-07T09:18:48.669Z,6.60
2018-04-07T09:19:49.738Z,6.60
2018-04-07T09:20:49.006Z,6.80
2018-04-07T09:21:47.319Z,6.90
2018-04-07T09:22:47.436Z,6.90
2018-04-07T09:23:47.701Z,6.10
2018-04-07T09:24:48.647Z,7.00
2018-04-07T09:25:48.179Z,6.20
2018-04-07T09:26:50.179Z,6.70
2018-04-07T09:27:50.213Z,6.00
2018-04-07T09:28:50.194Z,6.00
2018-04-07T09:29:51.687Z,6.40
2018-04-07T09:30:49.164Z,6.50
2018-04-07T09:31:53.195Z,6.30
2018-04-07T09:32:51.184Z,6.40
2018-04-07T09:33:53.683Z,6.80
2018-04-07T09:34:51.686Z,6.10
2018-04-07T09:35:51.717Z,6.40
2018-04-07T09:36:52.187Z,6.60
2018-04-07T09:37:50.529Z,6.60
2018-04-07T09:38:50.754Z,7.10
2018-04-07T09:39:54.676Z,6.60
2018-04-07T09:40:53.178Z,6.80
2018-04-07T09:41:53.190Z,6.50
2018-04-07T09:42:52.177Z,6.70
2018-04-07T09:43:57.048Z,7.00
2018-04-07T09:44:53.268Z,7.20
2018-04-07T09:45:54.182Z,7.30
2018-04-07T09:46:55.839Z,7.50
2018-04-07T09:47:54.226Z,7.20
2018-04-07T09:49:08.676Z,6.30
2018-04-07T09:49:53.049Z,5.50
2018-04-07T09:50:53.355Z,5.90
2018-04-07T09:51:55.175Z,5.70
2018-04-07T09:52:55.180Z,5.80
2018-04-07T09:53:53.899Z,6.40
2018-04-07T09:54:58.629Z,6.50
2018-04-07T09:55:55.444Z,6.50
2018-04-07T09:56:54.646Z,6.50
2018-04-07T09:58:16.824Z,6.10
2018-04-07T09:59:02.697Z,5.80
2018-04-07T09:59:56.685Z,5.70
2018-04-07T10:01:23.187Z,6.40
2018-04-07T10:01:55.520Z,5.30
2018-04-07T10:02:57.642Z,5.60
2018-04-07T10:04:08.636Z,4.90
2018-04-07T10:04:56.116Z,4.80
2018-04-07T10:05:58.323Z,4.60
2018-04-07T10:06:57.643Z,4.70
2018-04-07T10:07:59.636Z,4.70
2018-04-07T10:08:57.004Z,4.50
2018-04-07T10:10:04.197Z,4.40
2018-04-07T10:10:59.181Z,4.50
2018-04-07T10:11:59.211Z,4.20
2018-04-07T10:12:59.714Z,4.60
2018-04-07T10:14:01.716Z,4.40
2018-04-07T10:14:59.256Z,4.10
2018-04-07T10:15:58.385Z,3.70
2018-04-07T10:17:00.175Z,3.70
2018-04-07T10:18:00.674Z,3.50
2018-04-07T10:18:59.034Z,3.30
2018-04-07T10:20:01.173Z,3.80
2018-04-07T10:20:59.397Z,3.60
2018-04-07T10:22:01.177Z,3.30
2018-04-07T10:23:02.674Z,3.40
2018-04-07T10:24:01.067Z,3.40
2018-04-07T10:25:00.220Z,3.30
2018-04-07T10:26:01.444Z,3.40
2018-04-07T10:27:02.200Z,3.20
2018-04-07T10:28:02.705Z,3.10
2018-04-07T10:29:02.689Z,3.20
2018-04-07T10:30:09.626Z,3.30
2018-04-07T10:31:02.130Z,3.70
2018-04-07T10:32:03.191Z,3.60
2018-04-07T10:33:03.203Z,4.10
2018-04-07T10:34:01.823Z,3.50
2018-04-07T10:35:03.676Z,3.20
2018-04-07T10:36:02.291Z,3.10
2018-04-07T10:37:04.182Z,2.80
2018-04-07T10:38:03.698Z,3.10
2018-04-07T10:39:05.662Z,2.50
2018-04-07T10:40:06.712Z,2.80
2018-04-07T10:41:04.709Z,2.80
2018-04-07T10:42:03.419Z,3.00
2018-04-07T10:43:03.705Z,3.00
2018-04-07T10:44:07.600Z,3.10
2018-04-07T10:45:07.673Z,2.90
2018-04-07T10:46:05.141Z,2.90
2018-04-07T10:47:11.186Z,3.10
2018-04-07T10:48:04.591Z,3.10
2018-04-07T10:49:07.718Z,3.00
2018-04-07T10:50:10.954Z,2.90
2018-04-07T10:51:06.150Z,3.20
2018-04-07T10:52:09.173Z,2.60
2018-04-07T10:53:07.174Z,2.80
2018-04-07T10:54:05.906Z,2.80
2018-04-07T10:55:07.711Z,3.10
2018-04-07T10:56:08.228Z,2.90
2018-04-07T10:57:06.553Z,3.10
2018-04-07T10:58:09.634Z,2.90
2018-04-07T10:59:08.681Z,2.80
2018-04-07T11:00:08.706Z,2.90
2018-04-07T11:01:23.186Z,2.90
2018-04-07T11:02:07.518Z,2.90
2018-04-07T11:03:07.742Z,2.80
2018-04-07T11:04:09.690Z,3.10
2018-04-07T11:05:10.673Z,3.20
2018-04-07T11:06:12.189Z,2.80
2018-04-07T11:07:08.559Z,3.10
2018-04-07T11:08:10.684Z,3.10
2018-04-07T11:09:10.044Z,3.10
2018-04-07T11:10:11.177Z,3.00
2018-04-07T11:11:11.163Z,2.80
2018-04-07T11:12:13.690Z,3.00
2018-04-07T11:13:12.699Z,2.90
2018-04-07T11:14:11.683Z,2.70
2018-04-07T11:15:13.134Z,2.70
2018-04-07T11:16:10.637Z,3.20
2018-04-07T11:17:11.867Z,2.90
2018-04-07T11:18:12.697Z,3.10
2018-04-07T11:19:11.315Z,2.90
2018-04-07T11:20:12.554Z,3.00
2018-04-07T11:21:11.823Z,2.90
2018-04-07T11:22:13.692Z,2.70
2018-04-07T11:23:15.675Z,2.80
2018-04-07T11:24:12.409Z,3.00
2018-04-07T11:25:15.234Z,3.00
2018-04-07T11:26:20.634Z,2.70
2018-04-07T11:27:14.657Z,2.80
2018-04-07T11:28:28.696Z,3.00
2018-04-07T11:29:15.177Z,2.70
2018-04-07T11:30:17.188Z,2.80
2018-04-07T11:31:34.692Z,2.70
2018-04-07T11:32:17.686Z,2.80
2018-04-07T11:33:15.678Z,2.60
2018-04-07T11:34:16.191Z,2.60
2018-04-07T11:35:14.430Z,2.60
2018-04-07T11:36:19.009Z,2.70
2018-04-07T11:37:14.877Z,2.60
2018-04-07T11:38:16.722Z,2.70
2018-04-07T11:39:19.173Z,2.40
2018-04-07T11:40:15.528Z,2.50
2018-04-07T11:41:15.766Z,2.50
2018-04-07T11:42:17.678Z,2.60
2018-04-07T11:43:18.722Z,2.70
2018-04-07T11:44:16.328Z,2.50
2018-04-07T11:45:19.189Z,2.40
2018-04-07T11:46:28.686Z,2.50
2018-04-07T11:47:18.695Z,2.50
2018-04-07T11:48:17.195Z,2.50
2018-04-07T11:49:20.132Z,2.20
2018-04-07T11:50:21.188Z,2.30
2018-04-07T11:51:17.798Z,2.50
2018-04-07T11:52:19.035Z,2.40
2018-04-07T11:53:25.175Z,2.40
2018-04-07T11:54:19.434Z,2.10
2018-04-07T11:55:20.674Z,2.50
2018-04-07T11:56:20.688Z,2.30
2018-04-07T11:57:22.635Z,2.10
2018-04-07T11:58:20.690Z,2.10
2018-04-07T11:59:21.224Z,2.10
2018-04-07T12:00:19.811Z,2.30
2018-04-07T12:01:21.680Z,2.30
2018-04-07T12:02:23.740Z,2.30
2018-04-07T12:03:20.400Z,2.40
2018-04-07T12:04:23.178Z,2.30
2018-04-07T12:05:20.802Z,2.30
2018-04-07T12:06:22.680Z,2.20
2018-04-07T12:07:22.673Z,2.20
2018-04-07T12:08:23.127Z,2.20
2018-04-07T12:09:22.639Z,2.20
2018-04-07T12:10:21.804Z,2.40
2018-04-07T12:11:21.998Z,2.30
2018-04-07T12:12:22.223Z,2.50
2018-04-07T12:13:22.478Z,2.20
2018-04-07T12:14:25.211Z,2.30
2018-04-07T12:15:22.802Z,2.20
2018-04-07T12:16:24.669Z,2.00
2018-04-07T12:17:23.136Z,2.00
2018-04-07T12:18:24.393Z,2.10
2018-04-07T12:19:23.504Z,2.20
2018-04-07T12:20:24.674Z,2.20
2018-04-07T12:21:39.711Z,2.40
2018-04-07T12:22:25.671Z,2.30
2018-04-07T12:23:25.675Z,2.80
2018-04-07T12:24:24.411Z,2.40
2018-04-07T12:25:26.221Z,2.40
2018-04-07T12:26:47.719Z,2.60
2018-04-07T12:27:28.680Z,2.30
2018-04-07T12:28:25.152Z,1.80
2018-04-07T12:29:27.176Z,1.80
2018-04-07T12:30:27.196Z,2.00
2018-04-07T12:31:48.169Z,2.80
2018-04-07T12:32:27.711Z,2.10
2018-04-07T12:33:28.698Z,2.50
2018-04-07T12:34:29.686Z,2.60
2018-04-07T12:35:26.472Z,2.80
2018-04-07T12:36:26.660Z,2.30
2018-04-07T12:37:30.126Z,2.60
2018-04-07T12:38:28.670Z,2.80
2018-04-07T12:39:33.773Z,2.70
2018-04-07T12:40:29.173Z,2.70
2018-04-07T12:41:27.658Z,2.40
2018-04-07T12:42:27.868Z,2.40
2018-04-07T12:43:30.723Z,2.40
2018-04-07T12:44:28.253Z,2.50
2018-04-07T12:45:28.390Z,2.50
2018-04-07T12:46:29.624Z,2.60
2018-04-07T12:47:31.673Z,1.80
2018-04-07T12:48:30.670Z,2.20
2018-04-07T12:49:45.174Z,1.80
2018-04-07T12:50:30.230Z,2.50
2018-04-07T12:51:29.729Z,2.20
2018-04-07T12:52:33.806Z,2.30
2018-04-07T12:53:45.668Z,2.20
2018-04-07T12:54:30.250Z,2.00
2018-04-07T12:55:32.169Z,1.80
2018-04-07T12:56:45.172Z,2.20
2018-04-07T12:57:31.827Z,2.20
2018-04-07T12:58:31.052Z,2.40
2018-04-07T12:59:37.167Z,2.20
2018-04-07T13:00:33.180Z,2.40
2018-04-07T13:01:43.223Z,2.50
2018-04-07T13:02:39.671Z,2.60
2018-04-07T13:03:32.055Z,2.60
2018-04-07T13:04:32.181Z,2.30
2018-04-07T13:05:40.172Z,2.20
2018-04-07T13:06:32.612Z,2.20
2018-04-07T13:07:36.672Z,1.90
2018-04-07T13:08:37.644Z,1.80
2018-04-07T13:09:33.249Z,1.60
2018-04-07T13:10:35.175Z,1.70
2018-04-07T13:11:37.184Z,1.70
2018-04-07T13:12:34.779Z,1.60
2018-04-07T13:13:35.671Z,1.60
2018-04-07T13:14:34.139Z,1.60
2018-04-07T13:15:36.178Z,1.60
2018-04-07T13:16:34.521Z,1.60
2018-04-07T13:17:38.710Z,1.80
2018-04-07T13:18:42.673Z,2.50
2018-04-07T13:19:36.727Z,8.90
2018-04-07T13:20:37.192Z,3.70
2018-04-07T13:21:39.172Z,2.70